createdAt,value
2022-10-13T00:01:50.587Z,6.55
2022-10-13T00:04:17.257Z,5.93
2022-10-13T00:06:43.841Z,6.05
2022-10-13T00:09:10.541Z,6.35
2022-10-13T00:11:37.488Z,6.38
2022-10-13T00:14:05.143Z,5.55
2022-10-13T00:16:32.888Z,5.35
2022-10-13T00:18:59.891Z,7.60
2022-10-13T00:21:27.759Z,6.28
2022-10-13T00:23:55.241Z,5.03
2022-10-13T00:26:23.857Z,6.55
2022-10-13T00:28:52.919Z,6.32
2022-10-13T00:31:26.132Z,5.75
2022-10-13T00:33:53.384Z,6.07
2022-10-13T00:36:21.171Z,5.90
2022-10-13T00:38:47.896Z,5.78
2022-10-13T00:41:15.121Z,6.20
2022-10-13T00:43:52.465Z,6.85
2022-10-13T00:46:19.550Z,6.03
2022-10-13T00:48:47.658Z,6.50
2022-10-13T00:51:17.813Z,6.10
2022-10-13T00:53:46.728Z,6.53
2022-10-13T00:56:15.251Z,5.80
2022-10-13T00:58:43.556Z,6.82
2022-10-13T01:01:10.369Z,7.05
2022-10-13T01:03:37.806Z,6.70
2022-10-13T01:06:05.779Z,7.03
2022-10-13T01:08:33.326Z,8.00
2022-10-13T01:11:17.433Z,7.25
2022-10-13T01:13:46.902Z,7.30
2022-10-13T01:16:19.949Z,8.13
2022-10-13T01:18:58.247Z,7.38
2022-10-13T01:21:51.826Z,7.40
2022-10-13T01:24:42.797Z,7.35
2022-10-13T01:27:47.073Z,8.30
2022-10-13T01:30:20.690Z,8.15
2022-10-13T01:33:17.660Z,7.93
2022-10-13T01:36:06.873Z,8.80
2022-10-13T01:38:43.732Z,9.18
2022-10-13T01:41:33.282Z,10.18
2022-10-13T01:44:23.073Z,8.95
2022-10-13T01:46:51.753Z,8.15
2022-10-13T01:49:21.888Z,9.15
2022-10-13T01:51:50.083Z,8.30
2022-10-13T01:54:16.677Z,9.25
2022-10-13T01:56:52.292Z,8.77
2022-10-13T01:59:19.525Z,8.55
2022-10-13T02:01:56.051Z,8.88
2022-10-13T02:04:54.095Z,9.02
2022-10-13T02:07:28.095Z,8.95
2022-10-13T02:10:09.561Z,8.35
2022-10-13T02:12:55.095Z,7.90
2022-10-13T02:15:27.847Z,9.45
2022-10-13T02:17:55.378Z,7.97
2022-10-13T02:20:22.701Z,8.77
2022-10-13T02:22:55.980Z,8.38
2022-10-13T02:25:23.122Z,9.90
2022-10-13T02:27:50.286Z,15.23
2022-10-13T02:30:24.106Z,15.07
2022-10-13T02:32:50.945Z,14.75
2022-10-13T02:35:17.845Z,14.23
2022-10-13T02:37:44.505Z,13.30
2022-10-13T02:40:11.870Z,11.05
2022-10-13T02:42:38.629Z,9.52
2022-10-13T02:45:05.858Z,11.05
2022-10-13T02:47:32.505Z,10.15
2022-10-13T02:49:59.105Z,9.98
2022-10-13T02:52:25.835Z,9.98
2022-10-13T02:54:52.438Z,9.63
2022-10-13T02:57:19.192Z,9.68
2022-10-13T02:59:45.946Z,9.65
2022-10-13T03:02:12.689Z,9.88
2022-10-13T03:04:40.181Z,9.25
2022-10-13T03:07:07.231Z,9.20
2022-10-13T03:09:33.956Z,9.27
2022-10-13T03:12:00.665Z,8.85
2022-10-13T03:14:27.436Z,10.90
2022-10-13T03:16:54.073Z,9.20
2022-10-13T03:19:20.812Z,9.38
2022-10-13T03:21:47.453Z,9.30
2022-10-13T03:24:14.122Z,9.52
2022-10-13T03:26:40.752Z,8.77
2022-10-13T03:29:07.476Z,9.32
2022-10-13T03:31:34.137Z,9.63
2022-10-13T03:34:00.727Z,9.55
2022-10-13T03:36:27.367Z,10.20
2022-10-13T03:38:54.019Z,10.05
2022-10-13T03:41:21.144Z,9.35
2022-10-13T03:43:47.776Z,9.73
2022-10-13T03:46:16.785Z,10.65
2022-10-13T03:48:43.732Z,10.00
2022-10-13T03:51:14.133Z,9.85
2022-10-13T03:53:40.739Z,10.63
2022-10-13T03:56:07.990Z,11.20
2022-10-13T03:58:35.176Z,10.68
2022-10-13T04:01:05.594Z,9.95
2022-10-13T04:03:33.683Z,10.95
2022-10-13T04:06:02.696Z,10.85
2022-10-13T04:08:30.245Z,10.65
2022-10-13T04:11:05.486Z,11.30
2022-10-13T04:13:32.947Z,9.82
2022-10-13T04:16:29.872Z,10.60
2022-10-13T04:18:59.742Z,11.00
2022-10-13T04:21:27.540Z,10.48
2022-10-13T04:23:58.780Z,10.68
2022-10-13T04:26:28.181Z,10.60
2022-10-13T04:28:56.666Z,10.90
2022-10-13T04:31:24.573Z,9.68
2022-10-13T04:33:51.733Z,10.52
2022-10-13T04:36:18.910Z,11.50
2022-10-13T04:38:45.973Z,11.13
2022-10-13T04:41:14.016Z,11.20
2022-10-13T04:43:41.073Z,10.65
2022-10-13T04:46:14.582Z,12.38
2022-10-13T04:48:41.717Z,12.05
2022-10-13T04:51:11.664Z,11.00
2022-10-13T04:53:39.076Z,10.55
2022-10-13T04:56:11.479Z,11.10
2022-10-13T04:58:39.061Z,11.23
2022-10-13T05:01:07.877Z,11.90
2022-10-13T05:03:35.453Z,11.45
2022-10-13T05:06:02.099Z,12.43
2022-10-13T05:08:28.824Z,11.30
2022-10-13T05:10:57.392Z,13.05
2022-10-13T05:13:25.152Z,12.23
2022-10-13T05:15:52.243Z,12.27
2022-10-13T05:18:19.093Z,11.60
2022-10-13T05:20:46.781Z,12.30
2022-10-13T05:23:14.701Z,12.73
2022-10-13T05:25:41.518Z,11.68
2022-10-13T05:28:08.712Z,12.63
2022-10-13T05:30:35.622Z,13.40
2022-10-13T05:33:02.394Z,12.25
2022-10-13T05:35:29.042Z,13.00
2022-10-13T05:37:55.745Z,14.23
2022-10-13T05:40:22.473Z,12.70
2022-10-13T05:42:53.427Z,13.65
2022-10-13T05:45:22.189Z,13.77
2022-10-13T05:47:48.824Z,14.35
2022-10-13T05:50:15.504Z,13.93
2022-10-13T05:52:43.051Z,13.45
2022-10-13T05:55:13.457Z,13.73
2022-10-13T05:57:49.414Z,14.10
2022-10-13T06:00:18.549Z,11.95
2022-10-13T06:02:51.879Z,13.20
2022-10-13T06:05:21.356Z,13.55
2022-10-13T06:07:48.259Z,13.45
2022-10-13T06:10:15.685Z,12.68
2022-10-13T06:12:42.313Z,12.55
2022-10-13T06:15:09.441Z,14.57
2022-10-13T06:17:38.182Z,14.38
2022-10-13T06:20:06.276Z,13.60
2022-10-13T06:22:38.350Z,13.00
2022-10-13T06:25:06.974Z,13.23
2022-10-13T06:27:34.015Z,13.02
2022-10-13T06:30:00.738Z,12.98
2022-10-13T06:32:27.395Z,13.57
2022-10-13T06:34:54.788Z,12.80
2022-10-13T06:37:26.969Z,13.35
2022-10-13T06:39:54.160Z,12.90
2022-10-13T06:42:21.336Z,12.00
2022-10-13T06:44:48.388Z,12.57
2022-10-13T06:47:15.019Z,13.27
2022-10-13T06:49:41.655Z,11.73
2022-10-13T06:52:09.404Z,11.45
2022-10-13T06:54:36.037Z,12.05
2022-10-13T06:57:06.387Z,12.45
2022-10-13T06:59:33.132Z,12.52
2022-10-13T07:01:59.743Z,11.95
2022-10-13T07:04:28.021Z,12.30
2022-10-13T07:06:54.673Z,12.27
2022-10-13T07:09:21.336Z,12.45
2022-10-13T07:11:49.481Z,12.48
2022-10-13T07:14:16.155Z,12.38
2022-10-13T07:16:42.908Z,11.98
2022-10-13T07:19:09.592Z,11.57
2022-10-13T07:21:36.234Z,11.27
2022-10-13T07:24:04.018Z,11.90
2022-10-13T07:26:32.460Z,11.88
2022-10-13T07:28:59.321Z,12.02
2022-10-13T07:31:26.746Z,11.45
2022-10-13T07:33:53.353Z,10.85
2022-10-13T07:36:20.348Z,12.30
2022-10-13T07:38:47.198Z,10.82
2022-10-13T07:41:14.247Z,12.02
2022-10-13T07:43:41.648Z,12.77
2022-10-13T07:46:10.145Z,11.82
2022-10-13T07:48:36.829Z,11.85
2022-10-13T07:51:08.145Z,11.80
2022-10-13T07:53:35.629Z,11.15
2022-10-13T07:56:04.332Z,11.18
2022-10-13T07:58:31.096Z,12.82
2022-10-13T08:00:59.558Z,12.43
2022-10-13T08:03:27.704Z,11.77
2022-10-13T08:05:55.007Z,12.75
2022-10-13T08:08:22.265Z,12.13
2022-10-13T08:10:49.127Z,12.75
2022-10-13T08:13:15.823Z,12.52
2022-10-13T08:15:44.549Z,12.65
2022-10-13T08:18:13.392Z,11.82
2022-10-13T08:20:44.488Z,13.73
2022-10-13T08:23:12.857Z,12.88
2022-10-13T08:25:41.435Z,12.48
2022-10-13T08:28:18.849Z,12.23
2022-10-13T08:30:46.133Z,12.80
2022-10-13T08:33:13.255Z,11.15
2022-10-13T08:35:40.179Z,12.82
2022-10-13T08:38:07.667Z,12.88
2022-10-13T08:40:34.718Z,12.15
2022-10-13T08:43:06.378Z,12.75
2022-10-13T08:45:42.097Z,12.27
2022-10-13T08:48:19.216Z,10.93
2022-10-13T08:50:50.676Z,11.52
2022-10-13T08:53:38.140Z,13.48
2022-10-13T08:56:17.336Z,11.32
2022-10-13T08:58:44.215Z,12.15
2022-10-13T09:01:10.753Z,11.82
2022-10-13T09:03:55.503Z,11.93
2022-10-13T09:06:33.709Z,11.65
2022-10-13T09:09:09.540Z,11.80
2022-10-13T09:11:42.126Z,11.35
2022-10-13T09:14:11.797Z,10.85
2022-10-13T09:16:44.088Z,10.98
2022-10-13T09:19:30.142Z,11.07
2022-10-13T09:22:17.520Z,11.68
2022-10-13T09:24:44.257Z,11.45
2022-10-13T09:27:16.596Z,10.70
2022-10-13T09:29:44.635Z,10.45
2022-10-13T09:32:19.314Z,10.98
2022-10-13T09:34:47.143Z,10.18
2022-10-13T09:37:25.695Z,11.23
2022-10-13T09:40:14.269Z,10.32
2022-10-13T09:42:40.999Z,9.93
2022-10-13T09:45:23.330Z,10.65
2022-10-13T09:47:54.772Z,10.55
2022-10-13T09:50:26.424Z,10.57
2022-10-13T09:52:54.061Z,9.13
2022-10-13T09:55:33.389Z,9.60
2022-10-13T09:58:19.722Z,9.53
2022-10-13T10:00:49.741Z,10.20
2022-10-13T10:03:22.768Z,10.05
2022-10-13T10:05:56.178Z,10.02
2022-10-13T10:09:02.203Z,9.90
2022-10-13T10:11:45.440Z,8.95
2022-10-13T10:14:30.920Z,9.57
2022-10-13T10:17:28.639Z,10.05
2022-10-13T10:20:33.033Z,9.48
2022-10-13T10:23:04.393Z,9.32
2022-10-13T10:25:44.733Z,9.23
2022-10-13T10:28:36.312Z,10.15
2022-10-13T10:31:40.352Z,9.27
2022-10-13T10:34:35.584Z,10.48
2022-10-13T10:37:13.377Z,9.32
2022-10-13T10:39:57.346Z,9.70
2022-10-13T10:42:42.722Z,8.77
2022-10-13T10:45:24.867Z,8.57
2022-10-13T10:48:01.713Z,8.93
2022-10-13T10:50:30.696Z,10.10
2022-10-13T10:53:29.156Z,9.68
2022-10-13T10:56:07.182Z,9.63
2022-10-13T10:58:44.018Z,8.70
2022-10-13T11:01:33.240Z,11.25
2022-10-13T11:04:25.522Z,9.45
2022-10-13T11:06:52.234Z,10.40
2022-10-13T11:09:41.431Z,10.98
2022-10-13T11:12:20.807Z,10.32
2022-10-13T11:14:54.758Z,9.95
2022-10-13T11:17:28.481Z,9.77
2022-10-13T11:19:55.263Z,9.73
2022-10-13T11:22:31.634Z,10.35
2022-10-13T11:25:00.973Z,10.35
2022-10-13T11:27:38.986Z,9.63
2022-10-13T11:30:26.352Z,9.48
2022-10-13T11:32:55.819Z,10.35
2022-10-13T11:35:25.833Z,10.57
2022-10-13T11:38:07.458Z,11.60
2022-10-13T11:40:34.932Z,9.30
2022-10-13T11:43:32.457Z,11.38
2022-10-13T11:46:12.469Z,10.27
2022-10-13T11:48:39.009Z,10.50
2022-10-13T11:51:23.756Z,10.48
2022-10-13T11:54:12.604Z,10.50
2022-10-13T11:56:54.000Z,10.57
2022-10-13T11:59:23.975Z,11.30
2022-10-13T12:01:55.686Z,10.45
2022-10-13T12:04:25.427Z,10.13
2022-10-13T12:06:59.461Z,11.65
2022-10-13T12:09:27.475Z,10.45
2022-10-13T12:12:00.894Z,10.27
2022-10-13T12:14:35.610Z,11.57
2022-10-13T12:17:02.466Z,10.55
2022-10-13T12:19:32.496Z,10.57
2022-10-13T12:22:01.379Z,10.95
2022-10-13T12:24:30.335Z,10.25
2022-10-13T12:26:58.576Z,10.43
2022-10-13T12:29:28.863Z,9.95
2022-10-13T12:31:58.516Z,11.13
2022-10-13T12:34:32.196Z,10.85
2022-10-13T12:37:13.920Z,11.73
2022-10-13T12:39:41.144Z,10.95
2022-10-13T12:42:11.454Z,10.45
2022-10-13T12:44:38.654Z,10.50
2022-10-13T12:47:05.381Z,10.15
2022-10-13T12:49:34.492Z,10.35
2022-10-13T12:52:14.632Z,9.82
2022-10-13T12:54:54.020Z,10.20
2022-10-13T12:57:37.837Z,10.90
2022-10-13T13:00:05.959Z,9.52
2022-10-13T13:02:33.136Z,10.32
2022-10-13T13:04:59.856Z,8.52
2022-10-13T13:07:33.230Z,7.85
2022-10-13T13:10:08.777Z,9.30
2022-10-13T13:12:37.107Z,9.15
2022-10-13T13:15:25.416Z,10.02
2022-10-13T13:17:58.434Z,11.10
2022-10-13T13:20:34.798Z,10.60
2022-10-13T13:23:01.601Z,11.25
2022-10-13T13:25:28.297Z,10.90
2022-10-13T13:27:54.975Z,9.93
2022-10-13T13:30:23.866Z,10.15
2022-10-13T13:32:50.923Z,10.23
2022-10-13T13:35:17.697Z,10.02
2022-10-13T13:37:48.161Z,11.05
2022-10-13T13:40:17.846Z,10.95
2022-10-13T13:42:44.468Z,10.77
2022-10-13T13:45:15.618Z,11.55
2022-10-13T13:47:42.657Z,10.93
2022-10-13T13:50:21.110Z,12.63
2022-10-13T13:55:38.780Z,11.70
2022-10-13T13:58:05.449Z,11.10
2022-10-13T14:00:32.063Z,12.93
2022-10-13T14:02:58.736Z,13.90
2022-10-13T14:05:25.824Z,12.38
2022-10-13T14:07:57.846Z,11.75
2022-10-13T14:10:25.629Z,10.88
2022-10-13T14:12:52.599Z,11.18
2022-10-13T14:15:19.320Z,10.73
2022-10-13T14:17:45.989Z,11.85
2022-10-13T14:20:12.779Z,11.85
2022-10-13T14:22:39.775Z,10.35
2022-10-13T14:25:07.675Z,10.95
2022-10-13T14:27:35.468Z,9.80
2022-10-13T14:30:02.468Z,11.85
2022-10-13T14:32:29.178Z,14.18
2022-10-13T14:34:55.767Z,11.20
2022-10-13T14:37:23.889Z,12.60
2022-10-13T14:39:51.621Z,10.65
2022-10-13T14:42:18.279Z,10.52
2022-10-13T14:44:45.243Z,9.30
2022-10-13T14:47:12.124Z,9.70
2022-10-13T14:49:38.724Z,10.30
2022-10-13T14:52:05.452Z,9.10
2022-10-13T14:54:32.064Z,10.40
2022-10-13T14:57:01.069Z,11.93
2022-10-13T14:59:27.901Z,10.55
2022-10-13T15:01:54.492Z,11.52
2022-10-13T15:04:21.170Z,10.75
2022-10-13T15:06:47.981Z,10.23
2022-10-13T15:09:14.803Z,10.55
2022-10-13T15:11:41.514Z,10.45
2022-10-13T15:14:09.821Z,10.93
2022-10-13T15:16:37.851Z,12.40
2022-10-13T15:19:04.861Z,12.10
2022-10-13T15:21:31.523Z,10.10
2022-10-13T15:23:58.158Z,10.95
2022-10-13T15:26:24.819Z,11.38
2022-10-13T15:28:52.968Z,10.05
2022-10-13T15:31:22.377Z,9.40
2022-10-13T15:33:51.802Z,8.43
2022-10-13T15:36:20.107Z,10.70
2022-10-13T15:38:46.874Z,9.57
2022-10-13T15:41:13.571Z,10.23
2022-10-13T15:43:40.315Z,10.52
2022-10-13T15:46:21.587Z,9.70
2022-10-13T15:48:54.365Z,11.20
2022-10-13T15:51:24.509Z,10.57
2022-10-13T15:53:51.223Z,9.52
2022-10-13T15:56:17.990Z,11.43
2022-10-13T15:58:45.487Z,11.00
2022-10-13T16:01:13.359Z,10.25
2022-10-13T16:03:40.619Z,10.65
2022-10-13T16:06:09.525Z,10.30
2022-10-13T16:08:40.603Z,12.70
2022-10-13T16:11:08.675Z,11.73
2022-10-13T16:13:35.316Z,11.35
2022-10-13T16:16:02.115Z,11.30
2022-10-13T16:18:30.522Z,10.80
2022-10-13T16:20:58.571Z,10.82
2022-10-13T16:23:25.502Z,12.10
2022-10-13T16:25:52.134Z,11.23
2022-10-13T16:28:18.863Z,12.43
2022-10-13T16:30:45.454Z,11.82
2022-10-13T16:33:12.096Z,11.65
2022-10-13T16:35:38.777Z,12.48
2022-10-13T16:38:05.581Z,11.30
2022-10-13T16:40:32.473Z,11.38
2022-10-13T16:42:59.056Z,12.88
2022-10-13T16:45:41.306Z,11.25
2022-10-13T16:48:13.003Z,12.90
2022-10-13T16:50:39.624Z,12.85
2022-10-13T16:53:06.230Z,12.32
2022-10-13T16:55:32.800Z,13.32
2022-10-13T16:57:59.405Z,13.38
2022-10-13T17:00:26.043Z,13.65
2022-10-13T17:02:52.703Z,12.00
2022-10-13T17:05:19.336Z,12.55
2022-10-13T17:07:45.900Z,12.93
2022-10-13T17:10:12.533Z,12.40
2022-10-13T17:12:39.214Z,13.57
2022-10-13T17:15:06.147Z,14.77
2022-10-13T17:17:33.049Z,14.07
2022-10-13T17:19:59.664Z,12.85
2022-10-13T17:22:26.411Z,14.23
2022-10-13T17:24:53.025Z,12.75
2022-10-13T17:27:19.913Z,12.95
2022-10-13T17:29:46.922Z,12.32
2022-10-13T17:32:13.789Z,13.35
2022-10-13T17:34:40.569Z,13.27
2022-10-13T17:37:07.258Z,13.40
2022-10-13T17:39:33.907Z,12.05
2022-10-13T17:42:00.511Z,12.38
2022-10-13T17:44:27.172Z,13.63
2022-10-13T17:46:53.815Z,12.75
2022-10-13T17:49:20.559Z,13.50
2022-10-13T17:51:51.273Z,13.63
2022-10-13T17:54:19.433Z,14.48
2022-10-13T17:56:47.557Z,15.07
2022-10-13T17:59:16.313Z,14.02
2022-10-13T18:01:43.469Z,13.93
2022-10-13T18:04:12.609Z,15.57
2022-10-13T18:06:41.172Z,15.00
2022-10-13T18:09:10.809Z,14.40
2022-10-13T18:11:38.047Z,16.80
2022-10-13T18:14:05.338Z,13.90
2022-10-13T18:16:32.465Z,15.80
2022-10-13T18:18:59.160Z,17.40
2022-10-13T18:21:29.278Z,17.23
2022-10-13T18:23:58.354Z,16.20
2022-10-13T18:26:26.187Z,17.58
2022-10-13T18:28:53.252Z,18.83
2022-10-13T18:31:24.033Z,18.38
2022-10-13T18:33:51.898Z,16.55
2022-10-13T18:36:23.510Z,17.73
2022-10-13T18:38:56.583Z,16.02
2022-10-13T18:41:24.519Z,16.67
2022-10-13T18:43:51.605Z,16.83
2022-10-13T18:46:19.092Z,16.88
2022-10-13T18:48:46.004Z,15.57
2022-10-13T18:51:15.339Z,16.27
2022-10-13T18:53:43.413Z,15.50
2022-10-13T18:56:13.387Z,15.65
2022-10-13T18:58:40.605Z,16.02
2022-10-13T19:01:13.412Z,14.85
2022-10-13T19:03:41.280Z,17.02
2022-10-13T19:06:09.944Z,17.15
2022-10-13T19:08:36.921Z,15.77
2022-10-13T19:11:21.366Z,14.80
2022-10-13T19:13:49.208Z,16.75
2022-10-13T19:16:18.523Z,15.13
2022-10-13T19:18:45.758Z,16.87
2022-10-13T19:21:12.580Z,16.73
2022-10-13T19:23:40.166Z,17.67
2022-10-13T19:26:13.940Z,17.60
2022-10-13T19:28:41.963Z,17.05
2022-10-13T19:31:10.756Z,17.13
2022-10-13T19:33:43.478Z,18.23
2022-10-13T19:36:19.645Z,18.77
2022-10-13T19:38:46.302Z,17.60
2022-10-13T19:41:12.881Z,19.02
2022-10-13T19:43:39.508Z,19.23
2022-10-13T19:46:07.425Z,18.63
2022-10-13T19:48:34.165Z,19.63
2022-10-13T19:51:01.964Z,20.02
2022-10-13T19:53:28.610Z,21.45
2022-10-13T19:55:55.305Z,21.00
2022-10-13T19:58:22.076Z,22.73
2022-10-13T20:00:49.768Z,22.02
2022-10-13T20:03:16.824Z,21.85
2022-10-13T20:05:43.845Z,21.27
2022-10-13T20:08:11.878Z,20.90
2022-10-13T20:10:42.972Z,20.88
2022-10-13T20:13:10.571Z,20.05
2022-10-13T20:15:42.827Z,20.70
2022-10-13T20:18:12.801Z,21.90
2022-10-13T20:20:41.327Z,20.55
2022-10-13T20:23:09.419Z,20.73
2022-10-13T20:25:37.886Z,21.02
2022-10-13T20:28:05.750Z,20.33
2022-10-13T20:30:32.663Z,21.30
2022-10-13T20:32:59.462Z,22.20
2022-10-13T20:35:26.288Z,20.73
2022-10-13T20:37:52.934Z,21.25
2022-10-13T20:40:19.577Z,21.52
2022-10-13T20:42:51.411Z,21.33
2022-10-13T20:45:18.805Z,21.08
2022-10-13T20:47:46.822Z,20.17
2022-10-13T20:50:13.765Z,18.85
2022-10-13T20:52:40.396Z,19.95
2022-10-13T20:55:07.216Z,19.65
2022-10-13T20:57:33.817Z,20.02
2022-10-13T21:00:00.441Z,18.67
2022-10-13T21:02:27.053Z,20.02
2022-10-13T21:04:53.683Z,19.92
2022-10-13T21:07:20.675Z,18.65
2022-10-13T21:09:52.781Z,20.33
2022-10-13T21:12:20.517Z,23.58
2022-10-13T21:14:47.152Z,22.58
2022-10-13T21:17:13.751Z,23.08
2022-10-13T21:19:40.341Z,23.02
2022-10-13T21:22:06.964Z,21.33
2022-10-13T21:24:33.772Z,22.25
2022-10-13T21:27:00.384Z,22.75
2022-10-13T21:29:27.090Z,21.15
2022-10-13T21:31:53.724Z,23.48
2022-10-13T21:34:20.441Z,22.15
2022-10-13T21:36:47.063Z,23.27
2022-10-13T21:39:14.083Z,21.63
2022-10-13T21:41:40.842Z,20.00
2022-10-13T21:44:07.536Z,21.60
2022-10-13T21:46:34.940Z,22.60
2022-10-13T21:49:03.976Z,23.38
2022-10-13T21:51:33.587Z,21.20
2022-10-13T21:54:03.666Z,21.75
2022-10-13T21:56:31.836Z,22.52
2022-10-13T21:58:58.436Z,20.40
2022-10-13T22:01:25.452Z,22.10
2022-10-13T22:03:57.536Z,19.88
2022-10-13T22:06:24.632Z,20.48
2022-10-13T22:08:53.260Z,19.67
2022-10-13T22:11:21.041Z,20.35
2022-10-13T22:13:47.746Z,19.58
2022-10-13T22:16:19.998Z,18.85
2022-10-13T22:18:46.966Z,18.75
2022-10-13T22:21:19.861Z,19.05
2022-10-13T22:23:46.774Z,17.35
2022-10-13T22:26:17.697Z,18.60
2022-10-13T22:28:44.461Z,18.85
2022-10-13T22:31:13.053Z,19.08
2022-10-13T22:33:41.857Z,17.05
2022-10-13T22:36:17.629Z,18.45
2022-10-13T22:38:45.791Z,17.80
2022-10-13T22:41:14.599Z,16.98
2022-10-13T22:43:44.155Z,17.83
2022-10-13T22:46:15.744Z,18.20
2022-10-13T22:48:42.734Z,17.15
2022-10-13T22:51:10.792Z,17.17
2022-10-13T22:53:37.751Z,19.02
2022-10-13T22:56:13.857Z,18.88
2022-10-13T22:58:40.547Z,19.58
2022-10-13T23:01:09.468Z,19.80
2022-10-13T23:03:37.076Z,20.50
2022-10-13T23:06:04.457Z,19.48
2022-10-13T23:08:31.520Z,19.70
2022-10-13T23:10:58.455Z,19.40
2022-10-13T23:13:25.609Z,18.63
2022-10-13T23:15:52.291Z,18.42
2022-10-13T23:18:18.926Z,19.02
2022-10-13T23:20:45.505Z,18.95
2022-10-13T23:23:12.234Z,18.65
2022-10-13T23:25:38.889Z,18.52
2022-10-13T23:28:05.545Z,18.67
2022-10-13T23:30:32.230Z,18.33
2022-10-13T23:32:58.831Z,17.27
2022-10-13T23:35:26.055Z,18.20
2022-10-13T23:37:52.957Z,21.00
2022-10-13T23:40:19.862Z,19.83
2022-10-13T23:42:46.563Z,19.17
2022-10-13T23:45:13.252Z,19.33
2022-10-13T23:47:39.911Z,19.58
2022-10-13T23:50:06.961Z,17.77
2022-10-13T23:52:33.601Z,19.75
2022-10-13T23:55:00.289Z,18.30
2022-10-13T23:57:28.779Z,18.50
2022-10-13T23:59:55.477Z,18.42
